createdAt,value
2019-03-05T00:00:44.240Z,4.07
2019-03-05T00:01:55.598Z,4.07
2019-03-05T00:03:08.405Z,4.07
2019-03-05T00:04:20.275Z,4.06
2019-03-05T00:05:31.018Z,4.06
2019-03-05T00:06:42.286Z,4.07
2019-03-05T00:07:54.839Z,4.06
2019-03-05T00:09:07.533Z,4.07
2019-03-05T00:10:28.642Z,4.07
2019-03-05T00:11:40.178Z,4.07
2019-03-05T00:14:05.731Z,4.06
2019-03-05T00:15:17.970Z,4.07
2019-03-05T00:16:29.201Z,4.06
2019-03-05T00:17:41.475Z,4.06
2019-03-05T00:18:52.753Z,4.06
2019-03-05T00:20:04.046Z,4.06
2019-03-05T00:21:15.317Z,4.06
2019-03-05T00:22:26.552Z,4.06
2019-03-05T00:23:37.866Z,4.06
2019-03-05T00:24:49.125Z,4.06
2019-03-05T00:26:02.915Z,4.06
2019-03-05T00:27:14.169Z,4.06
2019-03-05T00:28:25.449Z,4.06
2019-03-05T00:29:36.714Z,4.06
2019-03-05T00:30:48.004Z,4.06
2019-03-05T00:31:59.198Z,4.06
2019-03-05T00:33:10.439Z,4.06
2019-03-05T00:34:21.707Z,4.06
2019-03-05T00:35:33.011Z,4.06
2019-03-05T00:36:45.282Z,4.06
2019-03-05T00:37:57.674Z,4.06
2019-03-05T00:39:09.945Z,4.06
2019-03-05T00:40:22.170Z,4.06
2019-03-05T00:41:34.415Z,4.06
2019-03-05T00:42:45.665Z,4.07
2019-03-05T00:43:56.895Z,4.06
2019-03-05T00:45:08.148Z,4.06
2019-03-05T00:46:20.417Z,4.06
2019-03-05T00:47:31.672Z,4.06
2019-03-05T00:48:42.443Z,4.06
2019-03-05T00:49:54.260Z,4.06
2019-03-05T00:51:06.513Z,4.06
2019-03-05T00:52:18.795Z,4.06
2019-03-05T00:53:30.046Z,4.06
2019-03-05T00:54:42.312Z,4.06
2019-03-05T00:55:54.585Z,4.06
2019-03-05T00:57:06.853Z,4.06
2019-03-05T00:58:18.112Z,4.06
2019-03-05T00:59:30.408Z,4.06
2019-03-05T01:00:41.653Z,4.06
2019-03-05T01:01:52.902Z,4.06
2019-03-05T01:03:05.216Z,4.06
2019-03-05T01:04:16.427Z,4.06
2019-03-05T01:05:27.687Z,4.06
2019-03-05T01:06:38.987Z,4.06
2019-03-05T01:07:50.293Z,4.06
2019-03-05T01:09:01.457Z,4.06
2019-03-05T01:10:12.708Z,4.06
2019-03-05T01:11:24.007Z,4.06
2019-03-05T01:12:49.675Z,4.06
2019-03-05T01:14:00.446Z,4.06
2019-03-05T01:15:11.708Z,4.06
2019-03-05T01:16:22.946Z,4.06
2019-03-05T01:17:34.219Z,4.06
2019-03-05T01:18:45.475Z,4.06
2019-03-05T01:19:56.708Z,4.06
2019-03-05T01:21:08.959Z,4.06
2019-03-05T01:22:20.189Z,4.06
2019-03-05T01:23:31.474Z,4.06
2019-03-05T01:24:42.714Z,4.06
2019-03-05T01:25:54.001Z,4.06
2019-03-05T01:27:06.226Z,4.06
2019-03-05T01:28:17.478Z,4.06
2019-03-05T01:29:28.724Z,4.06
2019-03-05T01:30:40.017Z,4.06
2019-03-05T01:31:51.256Z,4.06
2019-03-05T01:33:02.554Z,4.06
2019-03-05T01:34:13.805Z,4.06
2019-03-05T01:35:25.076Z,4.06
2019-03-05T01:36:36.308Z,4.06
2019-03-05T01:37:47.675Z,4.06
2019-03-05T01:38:58.905Z,4.06
2019-03-05T01:40:10.152Z,4.06
2019-03-05T01:41:22.406Z,4.06
2019-03-05T01:42:55.684Z,4.06
2019-03-05T01:44:11.870Z,4.06
2019-03-05T01:45:24.160Z,4.06
2019-03-05T01:46:35.407Z,4.06
2019-03-05T01:47:47.682Z,4.06
2019-03-05T01:48:58.897Z,4.06
2019-03-05T01:50:11.225Z,4.06
2019-03-05T01:51:22.452Z,4.06
2019-03-05T01:52:33.764Z,4.06
2019-03-05T01:53:46.025Z,4.06
2019-03-05T01:54:57.276Z,4.06
2019-03-05T01:56:09.522Z,4.06
2019-03-05T01:57:20.286Z,4.06
2019-03-05T01:58:31.504Z,4.06
2019-03-05T01:59:42.809Z,4.06
2019-03-05T02:00:54.059Z,4.06
2019-03-05T02:02:04.783Z,4.06
2019-03-05T02:03:16.073Z,4.06
2019-03-05T02:04:27.318Z,4.06
2019-03-05T02:05:38.558Z,4.06
2019-03-05T02:06:49.834Z,4.06
2019-03-05T02:08:01.069Z,4.06
2019-03-05T02:09:12.296Z,4.06
2019-03-05T02:10:23.577Z,4.06
2019-03-05T02:11:34.782Z,4.06
2019-03-05T02:12:46.073Z,4.06
2019-03-05T02:13:57.263Z,4.06
2019-03-05T02:15:08.699Z,4.06
2019-03-05T02:16:19.893Z,4.06
2019-03-05T02:17:31.162Z,4.06
2019-03-05T02:18:42.408Z,4.06
2019-03-05T02:19:54.654Z,4.06
2019-03-05T02:21:05.922Z,4.06
2019-03-05T02:22:17.184Z,4.06
2019-03-05T02:23:28.409Z,4.06
2019-03-05T02:24:39.694Z,4.06
2019-03-05T02:25:50.940Z,4.06
2019-03-05T02:27:03.240Z,4.06
2019-03-05T02:28:14.442Z,4.06
2019-03-05T02:29:25.690Z,4.06
2019-03-05T02:30:36.932Z,4.06
2019-03-05T02:31:48.190Z,4.06
2019-03-05T02:32:59.454Z,4.06
2019-03-05T02:34:10.671Z,4.06
2019-03-05T02:35:21.972Z,4.06
2019-03-05T02:36:33.207Z,4.06
2019-03-05T02:37:44.489Z,4.06
2019-03-05T02:38:55.709Z,4.06
2019-03-05T02:40:06.964Z,4.06
2019-03-05T02:41:18.195Z,4.06
2019-03-05T02:42:29.457Z,4.06
2019-03-05T02:43:40.680Z,4.06
2019-03-05T02:44:51.904Z,4.06
2019-03-05T02:46:03.209Z,4.06
2019-03-05T02:47:14.388Z,4.06
2019-03-05T02:48:25.647Z,4.06
2019-03-05T02:49:37.924Z,4.06
2019-03-05T02:50:49.121Z,4.06
2019-03-05T02:52:00.437Z,4.06
2019-03-05T02:53:11.649Z,4.06
2019-03-05T02:54:22.946Z,4.06
2019-03-05T02:55:34.142Z,4.06
2019-03-05T02:56:45.462Z,4.06
2019-03-05T02:57:56.670Z,4.06
2019-03-05T02:59:08.919Z,4.06
2019-03-05T03:00:20.188Z,4.06
2019-03-05T03:01:31.383Z,4.06
2019-03-05T03:02:43.646Z,4.06
2019-03-05T03:03:54.399Z,4.06
2019-03-05T03:05:05.639Z,4.06
2019-03-05T03:06:17.876Z,4.06
2019-03-05T03:07:29.182Z,4.06
2019-03-05T03:08:41.376Z,4.06
2019-03-05T03:09:52.693Z,4.06
2019-03-05T03:11:03.907Z,4.06
2019-03-05T03:12:16.110Z,4.06
2019-03-05T03:13:28.398Z,4.06
2019-03-05T03:14:39.601Z,4.06
2019-03-05T03:15:50.866Z,4.06
2019-03-05T03:17:02.079Z,4.06
2019-03-05T03:18:13.360Z,4.06
2019-03-05T03:19:24.138Z,4.06
2019-03-05T03:20:35.394Z,4.06
2019-03-05T03:21:47.645Z,4.06
2019-03-05T03:22:58.864Z,4.06
2019-03-05T03:24:10.100Z,4.06
2019-03-05T03:25:21.407Z,4.06
2019-03-05T03:26:33.639Z,4.06
2019-03-05T03:27:44.888Z,4.06
2019-03-05T03:28:56.135Z,4.06
2019-03-05T03:30:07.332Z,4.06
2019-03-05T03:31:18.651Z,4.06
2019-03-05T03:32:29.842Z,4.06
2019-03-05T03:33:41.135Z,4.06
2019-03-05T03:34:52.360Z,4.06
2019-03-05T03:36:03.626Z,4.06
2019-03-05T03:37:15.830Z,4.06
2019-03-05T03:38:28.127Z,4.06
2019-03-05T03:39:38.877Z,4.06
2019-03-05T03:40:51.153Z,4.06
2019-03-05T03:42:03.490Z,4.06
2019-03-05T03:43:15.597Z,4.06
2019-03-05T03:44:26.908Z,4.06
2019-03-05T03:45:38.175Z,4.06
2019-03-05T03:46:49.472Z,4.06
2019-03-05T03:48:00.650Z,4.06
2019-03-05T03:49:11.985Z,4.06
2019-03-05T03:50:23.154Z,4.06
2019-03-05T03:51:34.403Z,4.06
2019-03-05T03:52:45.623Z,4.05
2019-03-05T03:53:56.905Z,4.06
2019-03-05T03:55:08.128Z,4.06
2019-03-05T03:56:18.966Z,4.05
2019-03-05T03:57:31.223Z,4.06
2019-03-05T03:58:43.481Z,4.06
2019-03-05T03:59:54.690Z,4.06
2019-03-05T04:01:07.273Z,4.05
2019-03-05T04:02:17.224Z,4.06
2019-03-05T04:03:28.442Z,4.06
2019-03-05T04:04:40.708Z,4.05
2019-03-05T04:05:51.980Z,4.05
2019-03-05T04:07:03.290Z,4.05
2019-03-05T04:08:14.695Z,4.05
2019-03-05T04:09:25.983Z,4.05
2019-03-05T04:10:37.222Z,4.06
2019-03-05T04:11:49.461Z,4.05
2019-03-05T04:13:00.694Z,4.05
2019-03-05T04:14:11.908Z,4.05
2019-03-05T04:15:24.056Z,4.05
2019-03-05T04:16:35.315Z,4.05
2019-03-05T04:17:46.732Z,4.05
2019-03-05T04:18:57.926Z,4.05
2019-03-05T04:20:09.198Z,4.05
2019-03-05T04:21:20.470Z,4.05
2019-03-05T04:22:31.736Z,4.05
2019-03-05T04:23:42.993Z,4.05
2019-03-05T04:24:55.222Z,4.05
2019-03-05T04:26:06.637Z,4.05
2019-03-05T04:27:17.889Z,4.05
2019-03-05T04:28:29.137Z,4.05
2019-03-05T04:29:40.469Z,4.05
2019-03-05T04:30:52.665Z,4.05
2019-03-05T04:32:03.923Z,4.06
2019-03-05T04:33:16.231Z,4.05
2019-03-05T04:34:27.452Z,4.05
2019-03-05T04:35:38.664Z,4.05
2019-03-05T04:36:50.929Z,4.05
2019-03-05T04:38:02.229Z,4.05
2019-03-05T04:39:13.445Z,4.05
2019-03-05T04:40:25.192Z,4.05
2019-03-05T04:41:37.579Z,4.05
2019-03-05T04:42:49.705Z,4.05
2019-03-05T04:44:01.299Z,4.05
2019-03-05T04:45:13.572Z,4.05
2019-03-05T04:46:24.866Z,4.05
2019-03-05T04:47:37.057Z,4.05
2019-03-05T04:48:49.298Z,4.05
2019-03-05T04:50:01.529Z,4.05
2019-03-05T04:51:12.832Z,4.05
2019-03-05T04:52:25.114Z,4.05
2019-03-05T04:53:37.299Z,4.05
2019-03-05T04:54:49.526Z,4.05
2019-03-05T04:56:00.797Z,4.05
2019-03-05T04:57:12.065Z,4.05
2019-03-05T04:58:23.305Z,4.05
2019-03-05T04:59:34.558Z,4.05
2019-03-05T05:00:45.815Z,4.05
2019-03-05T05:01:57.029Z,4.05
2019-03-05T05:03:09.280Z,4.05
2019-03-05T05:04:20.662Z,4.05
2019-03-05T05:05:32.927Z,4.05
2019-03-05T05:06:44.131Z,4.05
2019-03-05T05:07:55.451Z,4.05
2019-03-05T05:09:06.696Z,4.05
2019-03-05T05:10:17.923Z,4.05
2019-03-05T05:11:29.136Z,4.05
2019-03-05T05:12:40.347Z,4.05
2019-03-05T05:13:51.073Z,4.05
2019-03-05T05:15:02.281Z,4.05
2019-03-05T05:16:13.509Z,4.05
2019-03-05T05:17:24.716Z,4.05
2019-03-05T05:18:35.954Z,4.05
2019-03-05T05:19:47.161Z,4.05
2019-03-05T05:20:58.380Z,4.05
2019-03-05T05:22:09.595Z,4.05
2019-03-05T05:23:20.804Z,4.05
2019-03-05T05:24:32.038Z,4.05
2019-03-05T05:25:43.263Z,4.05
2019-03-05T05:26:54.619Z,4.05
2019-03-05T05:28:05.855Z,4.05
2019-03-05T05:29:18.073Z,4.05
2019-03-05T05:30:29.297Z,4.05
2019-03-05T05:31:40.509Z,4.05
2019-03-05T05:32:51.727Z,4.05
2019-03-05T05:34:02.941Z,4.05
2019-03-05T05:35:14.157Z,4.05
2019-03-05T05:36:25.364Z,4.05
2019-03-05T05:37:36.630Z,4.05
2019-03-05T05:38:47.855Z,4.05
2019-03-05T05:39:59.075Z,4.05
2019-03-05T05:41:10.304Z,4.05
2019-03-05T05:42:21.513Z,4.05
2019-03-05T05:43:32.730Z,4.05
2019-03-05T05:44:43.959Z,4.05
2019-03-05T05:45:55.184Z,4.05
2019-03-05T05:47:06.394Z,4.05
2019-03-05T05:48:17.606Z,4.05
2019-03-05T05:49:29.134Z,4.05
2019-03-05T05:50:39.859Z,4.05
2019-03-05T05:51:51.064Z,4.05
2019-03-05T05:53:02.270Z,4.05
2019-03-05T05:54:13.495Z,4.05
2019-03-05T05:55:24.703Z,4.05
2019-03-05T05:56:35.919Z,4.05
2019-03-05T05:57:47.125Z,4.05
2019-03-05T05:58:58.358Z,4.05
2019-03-05T06:00:09.565Z,4.05
2019-03-05T06:01:20.794Z,4.05
2019-03-05T06:02:32.006Z,4.05
2019-03-05T06:03:43.252Z,4.05
2019-03-05T06:04:54.629Z,4.05
2019-03-05T06:06:05.847Z,4.05
2019-03-05T06:07:17.075Z,4.05
2019-03-05T06:08:28.293Z,4.05
2019-03-05T06:09:39.523Z,4.05
2019-03-05T06:10:52.777Z,4.05
2019-03-05T06:12:02.247Z,4.05
2019-03-05T06:13:13.459Z,4.05
2019-03-05T06:14:24.698Z,4.05
2019-03-05T06:15:35.908Z,4.05
2019-03-05T06:16:47.125Z,4.05
2019-03-05T06:17:58.336Z,4.05
2019-03-05T06:19:09.576Z,4.05
2019-03-05T06:20:20.802Z,4.05
2019-03-05T06:21:32.018Z,4.05
2019-03-05T06:22:43.238Z,4.05
2019-03-05T06:23:54.446Z,4.05
2019-03-05T06:25:05.681Z,4.05
2019-03-05T06:26:16.898Z,4.05
2019-03-05T06:27:28.120Z,4.05
2019-03-05T06:28:39.361Z,4.05
2019-03-05T06:29:50.624Z,4.05
2019-03-05T06:31:01.853Z,4.05
2019-03-05T06:32:13.065Z,4.05
2019-03-05T06:33:24.296Z,4.05
2019-03-05T06:34:35.511Z,4.05
2019-03-05T06:35:46.742Z,4.05
2019-03-05T06:36:57.963Z,4.05
2019-03-05T06:38:09.175Z,4.05
2019-03-05T06:39:20.387Z,4.05
2019-03-05T06:40:31.621Z,4.05
2019-03-05T06:41:42.847Z,4.05
2019-03-05T06:42:55.059Z,4.05
2019-03-05T06:44:06.310Z,4.05
2019-03-05T06:45:17.547Z,4.05
2019-03-05T06:46:28.763Z,4.05
2019-03-05T06:47:40.068Z,4.05
2019-03-05T06:48:51.208Z,4.05
2019-03-05T06:50:02.442Z,4.05
2019-03-05T06:51:13.675Z,4.05
2019-03-05T06:52:24.903Z,4.05
2019-03-05T06:53:36.118Z,4.05
2019-03-05T06:54:47.340Z,4.05
2019-03-05T06:55:58.630Z,4.05
2019-03-05T06:57:09.863Z,4.05
2019-03-05T06:58:21.092Z,4.05
2019-03-05T06:59:32.323Z,4.05
2019-03-05T07:00:43.557Z,4.05
2019-03-05T07:01:54.772Z,4.05
2019-03-05T07:03:06.006Z,4.05
2019-03-05T07:04:17.248Z,4.05
2019-03-05T07:05:29.108Z,4.05
2019-03-05T07:06:39.704Z,4.05
2019-03-05T07:07:50.926Z,4.05
2019-03-05T07:09:02.166Z,4.05
2019-03-05T07:10:13.392Z,4.05
2019-03-05T07:11:24.629Z,4.05
2019-03-05T07:12:35.863Z,4.05
2019-03-05T07:13:47.154Z,4.05
2019-03-05T07:14:58.306Z,4.05
2019-03-05T07:16:09.531Z,4.05
2019-03-05T07:17:20.764Z,4.05
2019-03-05T07:18:32.988Z,4.05
2019-03-05T07:19:44.209Z,4.05
2019-03-05T07:20:55.449Z,4.05
2019-03-05T07:22:06.676Z,4.05
2019-03-05T07:23:17.901Z,4.05
2019-03-05T07:24:29.130Z,4.05
2019-03-05T07:25:40.373Z,4.05
2019-03-05T07:26:51.605Z,4.05
2019-03-05T07:28:02.830Z,4.05
2019-03-05T07:29:14.065Z,4.06
2019-03-05T07:30:25.291Z,4.06
2019-03-05T07:31:36.626Z,4.06
2019-03-05T07:32:48.866Z,4.06
2019-03-05T07:34:00.090Z,4.06
2019-03-05T07:35:11.328Z,4.06
2019-03-05T07:36:22.634Z,4.06
2019-03-05T07:37:33.880Z,4.06
2019-03-05T07:38:45.132Z,4.06
2019-03-05T07:39:56.371Z,4.06
2019-03-05T07:41:07.616Z,4.06
2019-03-05T07:42:18.878Z,4.06
2019-03-05T07:43:36.357Z,4.06
2019-03-05T07:44:42.365Z,4.06
2019-03-05T07:45:53.632Z,4.06
2019-03-05T07:47:04.880Z,4.06
2019-03-05T07:48:17.123Z,4.06
2019-03-05T07:49:28.362Z,4.06
2019-03-05T07:50:39.613Z,4.06
2019-03-05T07:51:50.855Z,4.06
2019-03-05T07:53:02.114Z,4.05
2019-03-05T07:54:13.361Z,4.05
2019-03-05T07:55:24.622Z,4.06
2019-03-05T07:56:35.888Z,4.06
2019-03-05T07:57:47.152Z,4.06
2019-03-05T07:58:59.394Z,4.06
2019-03-05T08:00:10.638Z,4.06
2019-03-05T08:01:22.737Z,4.06
2019-03-05T08:02:33.128Z,4.06
2019-03-05T08:03:44.386Z,4.05
2019-03-05T08:04:55.624Z,4.06
2019-03-05T08:06:06.864Z,4.06
2019-03-05T08:07:18.182Z,4.06
2019-03-05T08:08:29.370Z,4.06
2019-03-05T08:09:40.127Z,4.06
2019-03-05T08:10:51.369Z,4.06
2019-03-05T08:12:02.620Z,4.06
2019-03-05T08:13:13.874Z,4.06
2019-03-05T08:14:25.126Z,4.06
2019-03-05T08:15:36.383Z,4.06
2019-03-05T08:16:47.635Z,4.06
2019-03-05T08:17:58.880Z,4.06
2019-03-05T08:19:10.141Z,4.06
2019-03-05T08:20:21.379Z,4.06
2019-03-05T08:21:32.635Z,4.06
2019-03-05T08:22:43.880Z,4.06
2019-03-05T08:23:55.123Z,4.06
2019-03-05T08:25:06.381Z,4.06
2019-03-05T08:26:17.634Z,4.06
2019-03-05T08:27:28.889Z,4.06
2019-03-05T08:28:40.150Z,4.06
2019-03-05T08:29:51.391Z,4.06
2019-03-05T08:31:02.148Z,4.06
2019-03-05T08:32:13.413Z,4.06
2019-03-05T08:33:24.695Z,4.06
2019-03-05T08:34:35.932Z,4.06
2019-03-05T08:35:47.183Z,4.06
2019-03-05T08:36:58.427Z,4.06
2019-03-05T08:38:09.688Z,4.06
2019-03-05T08:39:20.929Z,4.06
2019-03-05T08:40:32.180Z,4.06
2019-03-05T08:41:43.433Z,4.06
2019-03-05T08:42:54.677Z,4.06
2019-03-05T08:44:05.936Z,4.06
2019-03-05T08:45:28.436Z,4.06
2019-03-05T08:46:28.424Z,4.06
2019-03-05T08:47:39.682Z,4.06
2019-03-05T08:48:50.926Z,4.06
2019-03-05T08:50:02.168Z,4.06
2019-03-05T08:51:13.417Z,4.06
2019-03-05T08:52:24.666Z,4.06
2019-03-05T08:53:35.933Z,4.05
2019-03-05T08:54:47.173Z,4.06
2019-03-05T08:55:58.421Z,4.06
2019-03-05T08:57:09.668Z,4.06
2019-03-05T08:58:20.928Z,4.06
2019-03-05T08:59:32.759Z,4.06
2019-03-05T09:00:43.414Z,4.06
2019-03-05T09:01:54.667Z,4.06
2019-03-05T09:03:05.908Z,4.06
2019-03-05T09:04:17.156Z,4.06
2019-03-05T09:05:28.404Z,4.06
2019-03-05T09:06:39.643Z,4.06
2019-03-05T09:07:50.892Z,4.06
2019-03-05T09:09:02.139Z,4.06
2019-03-05T09:10:13.376Z,4.06
2019-03-05T09:11:24.622Z,4.06
2019-03-05T09:12:35.878Z,4.06
2019-03-05T09:13:47.118Z,4.06
2019-03-05T09:14:58.361Z,4.06
2019-03-05T09:16:09.637Z,4.06
2019-03-05T09:17:20.886Z,4.06
2019-03-05T09:18:33.145Z,4.06
2019-03-05T09:19:44.397Z,4.06
2019-03-05T09:20:55.635Z,4.06
2019-03-05T09:22:06.885Z,4.06
2019-03-05T09:23:18.131Z,4.06
2019-03-05T09:24:28.892Z,4.06
2019-03-05T09:25:40.145Z,4.06
2019-03-05T09:26:51.790Z,4.06
2019-03-05T09:28:02.646Z,4.06
2019-03-05T09:29:13.899Z,4.06
2019-03-05T09:30:25.156Z,4.06
2019-03-05T09:31:36.410Z,4.06
2019-03-05T09:32:47.650Z,4.06
2019-03-05T09:33:58.897Z,4.06
2019-03-05T09:35:10.156Z,4.07
2019-03-05T09:36:21.408Z,4.07
2019-03-05T09:37:32.654Z,4.07
2019-03-05T09:38:43.908Z,4.07
2019-03-05T09:39:55.156Z,4.07
2019-03-05T09:41:06.411Z,4.07
2019-03-05T09:42:17.664Z,4.07
2019-03-05T09:43:28.919Z,4.06
2019-03-05T09:44:40.161Z,4.07
2019-03-05T09:45:51.422Z,4.06
2019-03-05T09:47:02.684Z,4.07
2019-03-05T09:48:13.924Z,4.07
2019-03-05T09:49:25.181Z,4.07
2019-03-05T09:50:36.447Z,4.07
2019-03-05T09:51:47.691Z,4.07
2019-03-05T09:52:58.932Z,4.07
2019-03-05T09:54:10.190Z,4.07
2019-03-05T09:55:21.453Z,4.07
2019-03-05T09:56:33.208Z,4.07
2019-03-05T09:57:44.616Z,4.07
2019-03-05T09:58:55.864Z,4.07
2019-03-05T10:00:07.107Z,4.07
2019-03-05T10:01:18.362Z,4.07
2019-03-05T10:02:29.608Z,4.07
2019-03-05T10:03:40.862Z,4.07
2019-03-05T10:04:52.130Z,4.08
2019-03-05T10:06:03.403Z,4.08
2019-03-05T10:07:19.007Z,4.08
2019-03-05T10:08:32.527Z,4.08
2019-03-05T10:09:36.684Z,4.08
2019-03-05T10:10:47.958Z,4.08
2019-03-05T10:11:59.228Z,4.08
2019-03-05T10:13:13.110Z,4.08
2019-03-05T10:14:21.876Z,4.08
2019-03-05T10:15:33.141Z,4.08
2019-03-05T10:16:44.423Z,4.08
2019-03-05T10:17:55.688Z,4.08
2019-03-05T10:19:06.953Z,4.08
2019-03-05T10:20:18.229Z,4.08
2019-03-05T10:21:29.485Z,4.08
2019-03-05T10:22:40.737Z,4.08
2019-03-05T10:23:51.998Z,4.08
2019-03-05T10:25:06.216Z,4.08
2019-03-05T10:26:14.627Z,4.08
2019-03-05T10:27:25.885Z,4.08
2019-03-05T10:28:37.151Z,4.08
2019-03-05T10:29:48.420Z,4.08
2019-03-05T10:30:59.702Z,4.08
2019-03-05T10:32:10.981Z,4.08
2019-03-05T10:33:22.236Z,4.08
2019-03-05T10:34:33.512Z,4.08
2019-03-05T10:35:44.784Z,4.08
2019-03-05T10:36:56.057Z,4.08
2019-03-05T10:38:07.337Z,4.08
2019-03-05T10:39:29.643Z,4.08
2019-03-05T10:40:29.369Z,4.08
2019-03-05T10:41:42.910Z,4.08
2019-03-05T10:42:51.897Z,4.08
2019-03-05T10:44:03.172Z,4.08
2019-03-05T10:45:14.738Z,4.08
2019-03-05T10:46:26.015Z,4.08
2019-03-05T10:47:37.283Z,4.08
2019-03-05T10:48:48.621Z,4.08
2019-03-05T10:49:59.393Z,4.08
2019-03-05T10:51:10.686Z,4.08
2019-03-05T10:52:21.961Z,4.08
2019-03-05T10:53:33.230Z,4.08
2019-03-05T10:54:44.630Z,4.08
2019-03-05T10:55:55.890Z,4.08
2019-03-05T10:57:07.173Z,4.08
2019-03-05T10:58:18.440Z,4.08
2019-03-05T10:59:29.720Z,4.08
2019-03-05T11:00:40.978Z,4.08
2019-03-05T11:01:52.257Z,4.08
2019-03-05T11:03:03.823Z,4.08
2019-03-05T11:04:15.094Z,4.09
2019-03-05T11:05:26.371Z,4.09
2019-03-05T11:06:37.645Z,4.09
2019-03-05T11:07:48.920Z,4.09
2019-03-05T11:09:00.185Z,4.09
2019-03-05T11:10:11.447Z,4.09
2019-03-05T11:11:22.729Z,4.09
2019-03-05T11:12:33.998Z,4.09
2019-03-05T11:13:45.260Z,4.09
2019-03-05T11:14:56.628Z,4.09
2019-03-05T11:16:07.898Z,4.09
2019-03-05T11:17:19.194Z,4.09
2019-03-05T11:18:30.614Z,4.09
2019-03-05T11:19:41.907Z,4.09
2019-03-05T11:20:53.162Z,4.09
2019-03-05T11:22:04.431Z,4.09
2019-03-05T11:23:15.721Z,4.09
2019-03-05T11:24:26.993Z,4.09
2019-03-05T11:25:38.270Z,4.10
2019-03-05T11:26:49.547Z,4.10
2019-03-05T11:28:00.834Z,4.10
2019-03-05T11:29:12.112Z,4.10
2019-03-05T11:30:23.377Z,4.10
2019-03-05T11:31:34.651Z,4.10
2019-03-05T11:32:45.933Z,4.10
2019-03-05T11:33:57.220Z,4.10
2019-03-05T11:35:08.622Z,4.10
2019-03-05T11:36:19.915Z,4.10
2019-03-05T11:37:31.215Z,4.10
2019-03-05T11:38:42.623Z,4.10
2019-03-05T11:39:55.486Z,4.10
2019-03-05T11:41:05.210Z,4.10
2019-03-05T11:42:16.622Z,4.10
2019-03-05T11:43:27.427Z,4.10
2019-03-05T11:44:38.740Z,4.10
2019-03-05T11:45:50.020Z,4.10
2019-03-05T11:47:01.319Z,4.10
2019-03-05T11:48:13.619Z,4.10
2019-03-05T11:49:24.907Z,4.10
2019-03-05T11:50:36.218Z,4.10
2019-03-05T11:51:47.521Z,4.10
2019-03-05T11:52:58.804Z,4.10
2019-03-05T11:54:11.098Z,4.10
2019-03-05T11:55:23.388Z,4.10
2019-03-05T11:56:34.691Z,4.10
2019-03-05T11:57:46.008Z,4.10
2019-03-05T11:58:57.311Z,4.10
2019-03-05T12:00:09.605Z,4.10
2019-03-05T12:01:21.893Z,4.10
2019-03-05T12:02:33.184Z,4.10
2019-03-05T12:03:44.642Z,4.10
2019-03-05T12:04:55.443Z,4.10
2019-03-05T12:06:06.725Z,4.10
2019-03-05T12:07:18.024Z,4.10
2019-03-05T12:08:29.317Z,4.10
2019-03-05T12:09:40.646Z,4.10
2019-03-05T12:10:51.924Z,4.09
2019-03-05T12:12:03.216Z,4.10
2019-03-05T12:13:14.806Z,4.10
2019-03-05T12:14:26.086Z,4.10
2019-03-05T12:15:37.386Z,4.10
2019-03-05T12:16:48.688Z,4.10
2019-03-05T12:17:59.962Z,4.10
2019-03-05T12:19:11.272Z,4.10
2019-03-05T12:20:22.633Z,4.10
2019-03-05T12:21:33.917Z,4.10
2019-03-05T12:22:45.210Z,4.10
2019-03-05T12:23:56.655Z,4.10
2019-03-05T12:25:07.948Z,4.10
2019-03-05T12:26:19.224Z,4.10
2019-03-05T12:27:30.652Z,4.10
2019-03-05T12:28:42.453Z,4.10
2019-03-05T12:29:53.252Z,4.10
2019-03-05T12:31:04.637Z,4.10
2019-03-05T12:32:15.941Z,4.10
2019-03-05T12:33:27.227Z,4.11
2019-03-05T12:34:38.640Z,4.10
2019-03-05T12:35:49.937Z,4.10
2019-03-05T12:37:01.228Z,4.11
2019-03-05T12:38:12.526Z,4.11
2019-03-05T12:39:23.863Z,4.10
2019-03-05T12:40:35.144Z,4.09
2019-03-05T12:41:47.440Z,4.10
2019-03-05T12:42:58.744Z,4.11
2019-03-05T12:44:10.057Z,4.11
2019-03-05T12:45:21.394Z,4.10
2019-03-05T12:46:32.683Z,4.12
2019-03-05T12:47:44.006Z,4.11
2019-03-05T12:48:55.311Z,4.11
2019-03-05T12:50:06.642Z,4.11
2019-03-05T12:51:17.974Z,4.11
2019-03-05T12:52:29.306Z,4.11
2019-03-05T12:53:40.621Z,4.11
2019-03-05T12:54:51.953Z,4.10
2019-03-05T12:56:03.283Z,4.10
2019-03-05T12:57:14.639Z,4.11
2019-03-05T12:58:25.950Z,4.11
2019-03-05T12:59:37.279Z,4.12
2019-03-05T13:00:48.631Z,4.12
2019-03-05T13:01:59.971Z,4.12
2019-03-05T13:03:11.311Z,4.12
2019-03-05T13:04:22.648Z,4.11
2019-03-05T13:05:33.990Z,4.10
2019-03-05T13:06:45.344Z,4.10
2019-03-05T13:07:57.742Z,4.10
2019-03-05T13:09:08.085Z,4.09
2019-03-05T13:10:19.495Z,4.09
2019-03-05T13:11:30.931Z,4.10
2019-03-05T13:12:42.381Z,4.10
2019-03-05T13:14:05.723Z,4.09
2019-03-05T13:15:05.344Z,4.09
2019-03-05T13:16:16.863Z,4.09
2019-03-05T13:17:28.414Z,4.09
2019-03-05T13:18:39.971Z,4.09
2019-03-05T13:19:53.493Z,4.09
2019-03-05T13:21:03.568Z,4.09
2019-03-05T13:22:14.175Z,4.09
2019-03-05T13:23:25.720Z,4.09
2019-03-05T13:24:38.256Z,4.09
2019-03-05T13:25:49.801Z,4.09
2019-03-05T13:27:01.346Z,4.09
2019-03-05T13:28:12.849Z,4.09
2019-03-05T13:29:24.361Z,4.09
2019-03-05T13:30:35.371Z,4.09
2019-03-05T13:31:46.871Z,4.09
2019-03-05T13:32:59.062Z,4.09
2019-03-05T13:34:09.825Z,4.09
2019-03-05T13:35:25.226Z,4.09
2019-03-05T13:36:32.756Z,4.09
2019-03-05T13:37:44.234Z,4.09
2019-03-05T13:38:55.687Z,4.09
2019-03-05T13:40:07.155Z,4.09
2019-03-05T13:41:18.665Z,4.09
2019-03-05T13:42:33.415Z,4.09
2019-03-05T13:43:41.643Z,4.09
2019-03-05T13:44:53.171Z,4.09
2019-03-05T13:46:04.729Z,4.09
2019-03-05T13:47:16.318Z,4.09
2019-03-05T13:48:27.898Z,4.09
2019-03-05T13:49:40.859Z,4.09
2019-03-05T13:50:51.069Z,4.09
2019-03-05T13:52:02.683Z,4.09
2019-03-05T13:53:15.138Z,4.09
2019-03-05T13:54:25.861Z,4.09
2019-03-05T13:55:37.477Z,4.09
2019-03-05T13:56:49.098Z,4.09
2019-03-05T13:58:00.729Z,4.09
2019-03-05T13:59:12.357Z,4.09
2019-03-05T14:00:24.010Z,4.09
2019-03-05T14:01:35.677Z,4.09
2019-03-05T14:02:53.025Z,4.09
2019-03-05T14:03:59.034Z,4.09
2019-03-05T14:05:10.914Z,4.09
2019-03-05T14:06:22.425Z,4.08
2019-03-05T14:07:34.152Z,4.08
2019-03-05T14:08:45.855Z,4.08
2019-03-05T14:09:57.545Z,4.08
2019-03-05T14:11:09.296Z,4.09
2019-03-05T14:12:21.019Z,4.08
2019-03-05T14:13:32.773Z,4.08
2019-03-05T14:14:44.644Z,4.08
2019-03-05T14:15:56.377Z,4.08
2019-03-05T14:17:08.155Z,4.08
2019-03-05T14:18:19.922Z,4.08
2019-03-05T14:19:31.685Z,4.08
2019-03-05T14:20:43.444Z,4.08
2019-03-05T14:21:55.231Z,4.08
2019-03-05T14:23:06.999Z,4.08
2019-03-05T14:24:18.781Z,4.08
2019-03-05T14:25:30.643Z,4.08
2019-03-05T14:26:42.350Z,4.08
2019-03-05T14:27:54.078Z,4.08
2019-03-05T14:29:06.791Z,4.08
2019-03-05T14:30:20.886Z,4.08
2019-03-05T14:31:30.115Z,4.08
2019-03-05T14:32:41.788Z,4.08
2019-03-05T14:33:53.438Z,4.08
2019-03-05T14:35:05.110Z,4.08
2019-03-05T14:36:16.714Z,4.08
2019-03-05T14:37:28.353Z,4.08
2019-03-05T14:38:39.953Z,4.08
2019-03-05T14:39:51.536Z,4.08
2019-03-05T14:41:03.243Z,4.08
2019-03-05T14:42:14.719Z,4.08
2019-03-05T14:43:26.291Z,4.08
2019-03-05T14:44:40.090Z,4.08
2019-03-05T14:45:49.467Z,4.08
2019-03-05T14:47:01.001Z,4.08
2019-03-05T14:48:12.628Z,4.08
2019-03-05T14:49:24.224Z,4.08
2019-03-05T14:50:35.773Z,4.08
2019-03-05T14:51:47.305Z,4.08
2019-03-05T14:52:58.880Z,4.08
2019-03-05T14:54:10.439Z,4.08
2019-03-05T14:55:21.975Z,4.08
2019-03-05T14:56:33.007Z,4.08
2019-03-05T14:57:44.624Z,4.08
2019-03-05T14:58:56.179Z,4.08
2019-03-05T15:00:07.666Z,4.08
2019-03-05T15:01:19.192Z,4.08
2019-03-05T15:02:30.709Z,4.08
2019-03-05T15:03:42.217Z,4.08
2019-03-05T15:04:53.724Z,4.08
2019-03-05T15:06:05.243Z,4.08
2019-03-05T15:07:16.736Z,4.08
2019-03-05T15:08:28.221Z,4.08
2019-03-05T15:09:39.731Z,4.08
2019-03-05T15:10:51.227Z,4.08
2019-03-05T15:12:02.742Z,4.08
2019-03-05T15:13:17.291Z,4.08
2019-03-05T15:14:25.829Z,4.08
2019-03-05T15:15:37.313Z,4.08
2019-03-05T15:16:48.810Z,4.08
2019-03-05T15:18:00.343Z,4.08
2019-03-05T15:19:20.869Z,4.08
2019-03-05T15:20:23.366Z,4.08
2019-03-05T15:21:34.835Z,4.08
2019-03-05T15:22:46.332Z,4.08
2019-03-05T15:23:57.821Z,4.08
2019-03-05T15:25:09.311Z,4.08
2019-03-05T15:26:20.810Z,4.08
2019-03-05T15:27:32.242Z,4.08
2019-03-05T15:28:55.404Z,4.08
2019-03-05T15:29:54.697Z,4.08
2019-03-05T15:31:06.204Z,4.08
2019-03-05T15:32:17.632Z,4.08
2019-03-05T15:33:29.128Z,4.08
2019-03-05T15:34:40.643Z,4.08
2019-03-05T15:35:52.180Z,4.08
2019-03-05T15:37:03.589Z,4.08
2019-03-05T15:38:14.958Z,4.08
2019-03-05T15:39:25.923Z,4.08
2019-03-05T15:40:37.378Z,4.08
2019-03-05T15:41:48.798Z,4.08
2019-03-05T15:43:00.549Z,4.08
2019-03-05T15:44:11.624Z,4.08
2019-03-05T15:45:23.058Z,4.08
2019-03-05T15:46:34.468Z,4.08
2019-03-05T15:47:45.853Z,4.08
2019-03-05T15:48:57.288Z,4.08
2019-03-05T15:50:08.694Z,4.08
2019-03-05T15:51:20.100Z,4.08
2019-03-05T15:52:31.531Z,4.08